Time;durP1;ratioP1;P1;durP2;ratioP2;P2;SDS_P1;SDS_P2;PMS_P1;PMS_P2;Temp;Humidity;BMP_temperature;BMP_pressure;BME280_temperature;BME280_humidity;BME280_pressure;Samples;Min_cycle;Max_cycle;Signal;HPM_P1;HPM_P2
2022/05/31 00:01:05;;;;;;;0.30;0.30;;;9.50;99.90;;;;;;5052057;28;20037;-81
2022/05/31 00:03:31;;;;;;;0.00;0.00;;;9.50;99.90;;;;;;5052549;28;20385;-81
2022/05/31 00:05:56;;;;;;;0.00;0.00;;;9.50;99.90;;;;;;5035635;28;20098;-81
2022/05/31 00:08:22;;;;;;;0.00;0.00;;;9.50;99.90;;;;;;5036086;28;20078;-81
2022/05/31 00:10:47;;;;;;;0.00;0.00;;;9.40;99.90;;;;;;5052671;28;20048;-82
2022/05/31 00:13:13;;;;;;;0.00;0.00;;;9.40;99.90;;;;;;5052449;28;20129;-82
2022/05/31 00:15:39;;;;;;;0.00;0.00;;;9.40;99.90;;;;;;5052583;28;20070;-81
2022/05/31 00:18:05;;;;;;;0.45;0.30;;;9.40;99.90;;;;;;5035935;28;20136;-81
2022/05/31 00:20:31;;;;;;;0.00;0.00;;;9.30;99.90;;;;;;5052220;28;20049;-82
2022/05/31 00:22:57;;;;;;;0.00;0.00;;;9.20;99.90;;;;;;5036390;28;20587;-82
2022/05/31 00:25:23;;;;;;;0.00;0.00;;;9.20;99.90;;;;;;5052441;28;20049;-81
2022/05/31 00:27:50;;;;;;;0.00;0.00;;;9.30;99.90;;;;;;5052273;28;20041;-81
2022/05/31 00:30:16;;;;;;;0.00;0.00;;;9.10;99.90;;;;;;5054958;28;20045;-81
2022/05/31 00:32:47;;;;;;;0.00;0.00;;;9.10;99.90;;;;;;5056081;28;20409;-81
2022/05/31 00:35:30;;;;;;;0.00;0.00;;;9.10;99.90;;;;;;5056194;28;20053;-81
2022/05/31 00:37:58;;;;;;;0.00;0.00;;;9.10;99.90;;;;;;5039440;28;20512;-82
2022/05/31 00:40:26;;;;;;;0.00;0.00;;;9.10;99.90;;;;;;5039069;28;20562;-81
2022/05/31 00:42:54;;;;;;;0.00;0.00;;;9.10;99.90;;;;;;5039308;28;20080;-81
2022/05/31 00:45:34;;;;;;;0.00;0.00;;;9.10;99.90;;;;;;5055811;28;20055;-82
2022/05/31 00:48:00;;;;;;;0.00;0.00;;;9.10;99.90;;;;;;5056035;28;20049;-81
2022/05/31 00:50:33;;;;;;;0.00;0.00;;;9.10;99.90;;;;;;5039355;28;20397;-82
2022/05/31 00:53:03;;;;;;;0.00;0.00;;;9.10;99.90;;;;;;5055944;28;20045;-82
2022/05/31 00:55:37;;;;;;;2.35;0.55;;;9.10;99.90;;;;;;5055432;28;20079;-82
2022/05/31 00:58:11;;;;;;;0.00;0.00;;;9.20;99.90;;;;;;5038792;28;20106;-81
2022/05/31 01:00:38;;;;;;;0.00;0.00;;;9.10;99.90;;;;;;5055483;28;20056;-81
2022/05/31 01:03:05;;;;;;;0.00;0.00;;;9.10;99.90;;;;;;5038572;28;20045;-81
2022/05/31 01:05:31;;;;;;;0.00;0.00;;;9.10;99.90;;;;;;5055604;28;20060;-81
2022/05/31 01:07:57;;;;;;;0.00;0.00;;;9.10;99.90;;;;;;5038450;28;20392;-82
2022/05/31 01:10:23;;;;;;;0.00;0.00;;;9.10;99.90;;;;;;5055444;28;20080;-82
2022/05/31 01:12:50;;;;;;;0.00;0.00;;;9.10;99.90;;;;;;5055142;28;20055;-81
2022/05/31 01:15:17;;;;;;;0.10;0.10;;;9.10;99.90;;;;;;5038649;28;20045;-82
2022/05/31 01:17:44;;;;;;;0.00;0.00;;;9.10;99.90;;;;;;5038679;28;20107;-82
2022/05/31 01:20:17;;;;;;;0.00;0.00;;;9.00;99.90;;;;;;5055006;28;20112;-82
2022/05/31 01:22:52;;;;;;;0.00;0.00;;;9.00;99.90;;;;;;5055808;28;20052;-82
2022/05/31 01:25:21;;;;;;;0.00;0.00;;;8.90;99.90;;;;;;5054574;28;20500;-82
2022/05/31 01:27:49;;;;;;;0.00;0.00;;;8.90;99.90;;;;;;5054508;28;20102;-82
2022/05/31 01:30:16;;;;;;;0.10;0.10;;;8.90;99.90;;;;;;5053308;28;20084;-81
2022/05/31 01:32:47;;;;;;;0.00;0.00;;;8.90;99.90;;;;;;5038227;28;20059;-82
2022/05/31 01:35:34;;;;;;;0.00;0.00;;;8.90;99.90;;;;;;5054884;28;20049;-82
2022/05/31 01:38:10;;;;;;;0.00;0.00;;;8.80;99.90;;;;;;5055297;28;20048;-82
2022/05/31 01:40:43;;;;;;;0.00;0.00;;;8.80;99.90;;;;;;5038019;28;20041;-82
2022/05/31 01:43:09;;;;;;;0.00;0.00;;;8.80;99.90;;;;;;5055240;28;20131;-82
2022/05/31 01:45:43;;;;;;;0.00;0.00;;;8.80;99.90;;;;;;5054670;28;20458;-82
2022/05/31 01:48:09;;;;;;;0.00;0.00;;;8.70;99.90;;;;;;5037867;28;20111;-82
2022/05/31 01:50:35;;;;;;;0.00;0.00;;;8.70;99.90;;;;;;5054123;28;20045;-82
2022/05/31 01:53:01;;;;;;;0.28;0.00;;;8.70;99.90;;;;;;5055024;28;20077;-82
2022/05/31 01:55:29;;;;;;;0.00;0.00;;;8.60;99.90;;;;;;5054292;28;20548;-82
2022/05/31 01:57:59;;;;;;;0.00;0.00;;;8.60;99.90;;;;;;5054200;28;20088;-82
2022/05/31 02:00:25;;;;;;;0.43;0.00;;;8.60;99.90;;;;;;5037687;28;20060;-82
2022/05/31 02:02:52;;;;;;;0.00;0.00;;;8.60;99.90;;;;;;5054191;28;20053;-82
2022/05/31 02:05:19;;;;;;;0.20;0.20;;;8.60;99.90;;;;;;5054409;28;20066;-82
2022/05/31 02:07:56;;;;;;;0.00;0.00;;;8.60;99.90;;;;;;5037650;28;20501;-82
2022/05/31 02:10:23;;;;;;;0.00;0.00;;;8.60;99.90;;;;;;5037351;28;20059;-82
2022/05/31 02:12:49;;;;;;;0.00;0.00;;;8.60;99.90;;;;;;5037646;28;20136;-82
2022/05/31 02:15:15;;;;;;;0.00;0.00;;;8.70;99.90;;;;;;5037553;28;20048;-82
2022/05/31 02:17:41;;;;;;;0.00;0.00;;;8.70;99.90;;;;;;5054143;28;20400;-82
2022/05/31 02:20:07;;;;;;;0.00;0.00;;;8.70;99.90;;;;;;5037498;28;20055;-82
2022/05/31 02:22:33;;;;;;;0.00;0.00;;;8.70;99.90;;;;;;5053881;28;20076;-82
2022/05/31 02:25:00;;;;;;;0.00;0.00;;;8.70;99.90;;;;;;5037302;28;20045;-82
2022/05/31 02:27:25;;;;;;;0.22;0.00;;;8.80;99.90;;;;;;5053943;28;20137;-82
2022/05/31 02:29:51;;;;;;;0.00;0.00;;;8.80;99.90;;;;;;5053994;28;20076;-82
2022/05/31 02:32:17;;;;;;;0.00;0.00;;;8.80;99.90;;;;;;5054429;28;20045;-82
2022/05/31 02:34:45;;;;;;;0.00;0.00;;;8.80;99.90;;;;;;5053841;28;20071;-82
2022/05/31 02:37:12;;;;;;;0.00;0.00;;;8.80;99.90;;;;;;5053757;28;20041;-82
2022/05/31 02:39:38;;;;;;;0.00;0.00;;;8.80;99.90;;;;;;5053684;28;20128;-82
2022/05/31 02:42:05;;;;;;;0.00;0.00;;;8.80;99.90;;;;;;5053433;28;20519;-82
2022/05/31 02:44:31;;;;;;;0.00;0.00;;;8.80;99.90;;;;;;5053653;28;20048;-81
2022/05/31 02:46:56;;;;;;;0.00;0.00;;;8.80;99.90;;;;;;5053442;28;20102;-82
2022/05/31 02:49:22;;;;;;;0.00;0.00;;;8.90;99.90;;;;;;5036830;28;20041;-82
2022/05/31 02:51:48;;;;;;;0.00;0.00;;;8.90;99.90;;;;;;5052965;28;20595;-82
2022/05/31 02:54:17;;;;;;;0.00;0.00;;;8.80;99.90;;;;;;5053604;28;20049;-82
2022/05/31 02:56:42;;;;;;;0.03;0.03;;;8.90;99.90;;;;;;5036687;28;20061;-82
2022/05/31 02:59:08;;;;;;;0.63;0.00;;;8.90;99.90;;;;;;5052788;28;20052;-82
2022/05/31 03:01:36;;;;;;;0.00;0.00;;;8.90;99.90;;;;;;5052866;28;20053;-82
2022/05/31 03:04:03;;;;;;;0.00;0.00;;;8.90;99.90;;;;;;5053726;28;20041;-82
2022/05/31 03:06:29;;;;;;;0.17;0.17;;;8.90;99.90;;;;;;5053597;28;20127;-82
2022/05/31 03:08:55;;;;;;;0.00;0.00;;;8.90;99.90;;;;;;5036295;28;20555;-82
2022/05/31 03:11:54;;;;;;;0.00;0.00;;;8.90;99.90;;;;;;5053143;28;20048;-81
2022/05/31 03:14:35;;;;;;;0.00;0.00;;;8.90;99.90;;;;;;5053538;28;20045;-82
2022/05/31 03:17:16;;;;;;;0.00;0.00;;;8.90;99.90;;;;;;5053309;28;20465;-82
2022/05/31 03:19:55;;;;;;;0.00;0.00;;;8.90;99.90;;;;;;5036616;28;20051;-82
2022/05/31 03:22:29;;;;;;;0.00;0.00;;;8.90;99.90;;;;;;5053306;28;20053;-82
2022/05/31 03:25:01;;;;;;;0.00;0.00;;;8.90;99.90;;;;;;5053222;28;20049;-82
2022/05/31 03:27:28;;;;;;;2.00;0.57;;;9.00;99.90;;;;;;5036663;28;20470;-82
2022/05/31 03:29:57;;;;;;;0.00;0.00;;;9.00;99.90;;;;;;5052867;28;20496;-82
2022/05/31 03:32:23;;;;;;;0.00;0.00;;;9.10;99.90;;;;;;5052841;28;20052;-82
2022/05/31 03:34:49;;;;;;;0.00;0.00;;;9.00;99.90;;;;;;5036492;28;20139;-82
2022/05/31 03:37:15;;;;;;;0.00;0.00;;;9.00;99.90;;;;;;5052895;28;20041;-82
2022/05/31 03:39:41;;;;;;;0.00;0.00;;;9.00;99.90;;;;;;5052421;28;20416;-82
2022/05/31 03:42:07;;;;;;;0.00;0.00;;;9.00;99.90;;;;;;5052466;28;20124;-82
2022/05/31 03:44:33;;;;;;;0.70;0.00;;;9.00;99.90;;;;;;5036031;28;20566;-82
2022/05/31 03:47:01;;;;;;;0.00;0.00;;;9.00;99.90;;;;;;5052467;28;20049;-82
2022/05/31 03:49:27;;;;;;;0.00;0.00;;;9.00;99.90;;;;;;5052346;28;20052;-82
2022/05/31 03:51:53;;;;;;;0.00;0.00;;;9.10;99.90;;;;;;5052656;28;20485;-82
2022/05/31 03:54:19;;;;;;;0.00;0.00;;;9.10;99.90;;;;;;5052639;28;20044;-82
2022/05/31 03:56:45;;;;;;;0.00;0.00;;;9.10;99.90;;;;;;5052850;28;20391;-82
2022/05/31 03:59:10;;;;;;;0.00;0.00;;;9.10;99.90;;;;;;5052107;28;20448;-81
2022/05/31 04:01:36;;;;;;;0.00;0.00;;;9.10;99.90;;;;;;5052418;28;20048;-82
2022/05/31 04:04:03;;;;;;;0.00;0.00;;;9.10;99.90;;;;;;5053362;28;20504;-82
2022/05/31 04:06:28;;;;;;;0.00;0.00;;;9.20;99.90;;;;;;5056683;28;20037;-82
2022/05/31 04:08:54;;;;;;;0.03;0.00;;;9.20;99.90;;;;;;5056755;28;20381;-82
2022/05/31 04:11:20;;;;;;;0.00;0.00;;;9.20;99.90;;;;;;5056519;28;20432;-82
2022/05/31 04:13:46;;;;;;;0.00;0.00;;;9.10;99.90;;;;;;5056575;28;20048;-82
2022/05/31 04:16:14;;;;;;;0.00;0.00;;;9.20;99.90;;;;;;5056393;28;20045;-82
2022/05/31 04:18:41;;;;;;;0.08;0.08;;;9.30;99.90;;;;;;5039742;28;20045;-82
2022/05/31 04:21:10;;;;;;;0.00;0.00;;;9.30;99.90;;;;;;5056137;28;20037;-82
2022/05/31 04:26:19;;;;;;;0.00;0.00;;;9.30;99.90;;;;;;5056406;28;20048;-82
2022/05/31 04:28:45;;;;;;;0.00;0.00;;;9.30;99.90;;;;;;5056992;28;20045;-82
2022/05/31 04:31:11;;;;;;;0.00;0.00;;;9.30;99.90;;;;;;5056188;28;20091;-82
2022/05/31 04:33:37;;;;;;;0.00;0.00;;;9.40;99.90;;;;;;5039746;28;20060;-82
2022/05/31 04:36:11;;;;;;;0.00;0.00;;;9.40;99.90;;;;;;5056123;28;20048;-82
2022/05/31 04:38:38;;;;;;;0.00;0.00;;;9.40;99.90;;;;;;5056212;28;20045;-82
2022/05/31 04:41:04;;;;;;;0.00;0.00;;;9.40;99.90;;;;;;5038876;28;20048;-82
2022/05/31 04:43:31;;;;;;;0.00;0.00;;;9.40;99.90;;;;;;5055892;28;20481;-83
2022/05/31 04:46:07;;;;;;;1.35;0.75;;;9.40;99.90;;;;;;5055886;28;20543;-82
2022/05/31 04:48:33;;;;;;;0.00;0.00;;;9.50;99.90;;;;;;5056257;28;20047;-82
2022/05/31 04:50:59;;;;;;;0.00;0.00;;;9.50;99.90;;;;;;5039152;28;20053;-82
2022/05/31 04:53:24;;;;;;;0.00;0.00;;;9.50;99.90;;;;;;5039342;28;20091;-82
2022/05/31 04:55:50;;;;;;;0.00;0.00;;;9.50;99.90;;;;;;5039013;28;20488;-82
2022/05/31 04:58:15;;;;;;;0.00;0.00;;;9.50;99.90;;;;;;5055570;28;20135;-82
2022/05/31 05:00:41;;;;;;;0.00;0.00;;;9.60;99.90;;;;;;5038945;28;20416;-83
2022/05/31 05:03:07;;;;;;;0.00;0.00;;;9.60;99.90;;;;;;5055540;28;20044;-83
2022/05/31 05:05:33;;;;;;;0.00;0.00;;;9.60;99.90;;;;;;5038818;28;20045;-83
2022/05/31 05:07:59;;;;;;;0.00;0.00;;;9.60;99.90;;;;;;5054531;28;20045;-82
2022/05/31 05:10:25;;;;;;;0.00;0.00;;;9.60;99.90;;;;;;5056115;28;20102;-82
2022/05/31 05:12:50;;;;;;;0.00;0.00;;;9.70;99.90;;;;;;5039133;28;20057;-82
2022/05/31 05:15:16;;;;;;;0.00;0.00;;;9.70;99.90;;;;;;5054981;28;20068;-82
2022/05/31 05:17:42;;;;;;;0.00;0.00;;;9.70;99.90;;;;;;5055339;28;20045;-82
2022/05/31 05:20:08;;;;;;;0.00;0.00;;;9.80;99.90;;;;;;5055139;28;20109;-83
2022/05/31 05:22:34;;;;;;;0.00;0.00;;;9.80;99.90;;;;;;5038378;28;20084;-81
2022/05/31 05:24:59;;;;;;;0.00;0.00;;;9.90;99.90;;;;;;5039085;28;20531;-82
2022/05/31 05:27:25;;;;;;;0.00;0.00;;;9.90;99.90;;;;;;5038571;28;20049;-82
2022/05/31 05:32:35;;;;;;;0.00;0.00;;;10.00;99.90;;;;;;5055151;28;20053;-82
2022/05/31 05:35:00;;;;;;;0.00;0.00;;;10.10;99.90;;;;;;5054982;28;20045;-82
2022/05/31 05:37:26;;;;;;;0.00;0.00;;;10.10;99.90;;;;;;5054931;28;20067;-83
2022/05/31 05:39:52;;;;;;;0.00;0.00;;;10.20;99.90;;;;;;5054906;28;20382;-82
2022/05/31 05:42:17;;;;;;;0.00;0.00;;;10.30;99.90;;;;;;5054714;28;20473;-82
2022/05/31 05:44:43;;;;;;;0.00;0.00;;;10.30;99.90;;;;;;5037918;28;20053;-82
2022/05/31 05:47:14;;;;;;;0.00;0.00;;;10.30;99.90;;;;;;5038427;28;20481;-83
2022/05/31 05:49:40;;;;;;;0.00;0.00;;;10.40;99.90;;;;;;5054712;28;20139;-82
2022/05/31 05:52:09;;;;;;;0.00;0.00;;;10.40;99.90;;;;;;5054247;28;20048;-83
2022/05/31 05:54:34;;;;;;;0.00;0.00;;;10.50;99.90;;;;;;5037989;28;20056;-83
2022/05/31 05:57:00;;;;;;;0.00;0.00;;;10.60;99.90;;;;;;5038471;28;20060;-83
2022/05/31 05:59:26;;;;;;;0.00;0.00;;;10.60;99.90;;;;;;5056534;28;20451;-83
2022/05/31 06:02:02;;;;;;;0.00;0.00;;;10.70;99.90;;;;;;5054469;28;20405;-82
2022/05/31 06:04:40;;;;;;;0.00;0.00;;;10.70;99.90;;;;;;5054369;28;20044;-82
2022/05/31 06:07:08;;;;;;;0.00;0.00;;;10.80;99.90;;;;;;5037619;28;20480;-83
2022/05/31 06:09:35;;;;;;;0.00;0.00;;;10.80;99.90;;;;;;5037292;28;20101;-83
2022/05/31 06:12:11;;;;;;;0.00;0.00;;;10.90;99.90;;;;;;5037696;28;20140;-82
2022/05/31 06:14:44;;;;;;;0.00;0.00;;;11.00;99.90;;;;;;5054182;28;20083;-82
2022/05/31 06:17:24;;;;;;;0.00;0.00;;;11.20;99.90;;;;;;5038004;28;20060;-82
2022/05/31 06:19:51;;;;;;;0.00;0.00;;;11.30;99.90;;;;;;5053744;28;20060;-82
2022/05/31 06:22:19;;;;;;;0.10;0.00;;;11.40;99.90;;;;;;5037729;28;20048;-82
2022/05/31 06:24:45;;;;;;;0.00;0.00;;;11.50;99.90;;;;;;5037418;28;20045;-82
2022/05/31 06:27:10;;;;;;;0.00;0.00;;;11.50;99.90;;;;;;5053199;28;20111;-81
2022/05/31 06:29:36;;;;;;;0.00;0.00;;;11.60;99.90;;;;;;5054078;28;20127;-82
2022/05/31 06:32:02;;;;;;;0.00;0.00;;;11.70;99.90;;;;;;5055394;28;20056;-81
2022/05/31 06:34:28;;;;;;;0.00;0.00;;;11.80;99.90;;;;;;5055253;28;20056;-82
2022/05/31 06:37:08;;;;;;;0.00;0.00;;;12.00;99.90;;;;;;5054700;28;20048;-82
2022/05/31 06:39:39;;;;;;;0.00;0.00;;;12.10;99.90;;;;;;5054630;28;20048;-82
2022/05/31 06:42:06;;;;;;;0.10;0.10;;;12.10;99.90;;;;;;5055902;28;20420;-81
2022/05/31 06:44:33;;;;;;;0.00;0.00;;;12.20;99.90;;;;;;5037940;28;20492;-81
2022/05/31 06:46:59;;;;;;;0.77;0.20;;;12.20;99.90;;;;;;5054547;28;20398;-82
2022/05/31 06:49:25;;;;;;;0.00;0.00;;;12.20;99.90;;;;;;5054469;28;20037;-82
2022/05/31 06:57:19;;;;;;;0.13;0.13;;;12.60;99.90;;;;;;5054372;28;20400;-82
2022/05/31 06:59:44;;;;;;;0.10;0.10;;;12.70;99.90;;;;;;5053066;28;20045;-82
2022/05/31 07:02:10;;;;;;;0.00;0.00;;;12.90;99.90;;;;;;5053496;28;20144;-83
2022/05/31 07:04:37;;;;;;;0.00;0.00;;;13.00;99.90;;;;;;5055691;28;20032;-80
2022/05/31 07:07:04;;;;;;;0.00;0.00;;;13.20;99.90;;;;;;5046187;28;20201;-80
2022/05/31 07:09:30;;;;;;;2.80;0.65;;;13.30;99.90;;;;;;5061561;28;20127;-80
2022/05/31 07:11:56;;;;;;;0.00;0.00;;;13.40;99.90;;;;;;5060847;28;20135;-80
2022/05/31 07:14:24;;;;;;;2.08;0.55;;;13.60;99.90;;;;;;5046107;28;20101;-80
2022/05/31 07:16:49;;;;;;;0.00;0.00;;;13.80;99.90;;;;;;5060927;28;20396;-80
2022/05/31 07:19:15;;;;;;;0.00;0.00;;;13.90;99.90;;;;;;5045650;28;20049;-83
2022/05/31 07:21:41;;;;;;;0.15;0.15;;;14.10;99.90;;;;;;5058195;28;20135;-81
2022/05/31 07:24:06;;;;;;;0.00;0.00;;;14.10;99.90;;;;;;5053703;28;20045;-82
2022/05/31 07:26:33;;;;;;;0.00;0.00;;;14.10;99.90;;;;;;5036756;28;20102;-81
2022/05/31 07:28:58;;;;;;;0.00;0.00;;;14.20;99.90;;;;;;5036642;28;20048;-82
2022/05/31 07:31:24;;;;;;;0.00;0.00;;;14.30;99.90;;;;;;5059112;28;20562;-82
2022/05/31 07:33:50;;;;;;;0.00;0.00;;;14.40;99.90;;;;;;5056660;28;20075;-81
2022/05/31 07:36:15;;;;;;;0.00;0.00;;;14.60;99.90;;;;;;5036710;28;20044;-81
2022/05/31 07:38:41;;;;;;;0.00;0.00;;;14.70;99.90;;;;;;5053150;28;20056;-82
2022/05/31 07:41:09;;;;;;;0.00;0.00;;;14.90;99.90;;;;;;5036141;28;20044;-82
2022/05/31 07:43:34;;;;;;;0.00;0.00;;;15.00;99.90;;;;;;5052933;28;20049;-82
2022/05/31 07:46:05;;;;;;;0.00;0.00;;;15.10;99.90;;;;;;5052994;28;20045;-82
2022/05/31 07:48:35;;;;;;;0.10;0.00;;;15.20;99.90;;;;;;5060656;28;20164;-82
2022/05/31 07:51:00;;;;;;;0.00;0.00;;;15.40;99.90;;;;;;5073749;28;20052;-82
2022/05/31 07:53:26;;;;;;;0.00;0.00;;;15.50;99.90;;;;;;5072814;28;20122;-81
2022/05/31 07:56:00;;;;;;;0.00;0.00;;;15.60;99.90;;;;;;5073252;28;20040;-82
2022/05/31 07:58:33;;;;;;;0.00;0.00;;;15.70;99.20;;;;;;5073002;28;20080;-81
2022/05/31 08:01:03;;;;;;;0.00;0.00;;;15.90;99.90;;;;;;5055595;28;20060;-81
2022/05/31 08:03:30;;;;;;;10.60;0.80;;;16.00;98.50;;;;;;5056351;28;20080;-81
2022/05/31 08:05:57;;;;;;;0.00;0.00;;;16.20;99.70;;;;;;5072687;28;20054;-82
2022/05/31 08:08:22;;;;;;;0.00;0.00;;;16.20;96.20;;;;;;5056068;28;20554;-82
2022/05/31 08:10:48;;;;;;;0.00;0.00;;;16.30;98.10;;;;;;5072451;28;20040;-81
2022/05/31 08:13:14;;;;;;;0.00;0.00;;;16.30;94.30;;;;;;5072718;28;20048;-81
2022/05/31 08:15:40;;;;;;;0.00;0.00;;;16.40;95.80;;;;;;5055858;28;20060;-81
2022/05/31 08:18:06;;;;;;;0.20;0.20;;;16.40;96.50;;;;;;5072657;28;20076;-81
2022/05/31 08:20:31;;;;;;;0.20;0.00;;;16.40;94.60;;;;;;5072956;28;20569;-82
2022/05/31 08:22:57;;;;;;;0.00;0.00;;;16.50;96.10;;;;;;5056013;28;20135;-82
2022/05/31 08:25:23;;;;;;;0.00;0.00;;;16.60;94.30;;;;;;5072909;28;20041;-81
2022/05/31 08:27:48;;;;;;;0.00;0.00;;;16.60;94.80;;;;;;5055398;28;20052;-81
2022/05/31 08:30:14;;;;;;;0.00;0.00;;;16.70;94.80;;;;;;5055504;28;20059;-81
2022/05/31 08:32:40;;;;;;;0.00;0.00;;;16.90;94.10;;;;;;5072292;28;20036;-81
2022/05/31 08:35:07;;;;;;;0.00;0.00;;;17.00;93.80;;;;;;5072388;28;20045;-81
2022/05/31 08:37:33;;;;;;;0.00;0.00;;;17.00;91.10;;;;;;5056013;28;20044;-81
2022/05/31 08:39:58;;;;;;;0.00;0.00;;;17.10;94.50;;;;;;5072213;28;20357;-81
2022/05/31 08:42:51;;;;;;;0.00;0.00;;;17.20;89.80;;;;;;5072479;28;20521;-82
2022/05/31 08:45:55;;;;;;;0.00;0.00;;;17.40;93.80;;;;;;5073010;28;20055;-81
2022/05/31 08:48:42;;;;;;;4.65;0.10;;;17.50;93.20;;;;;;5034678;28;20049;-81
2022/05/31 08:57:07;;;;;;;0.00;0.00;;;17.60;85.10;;;;;;5034097;28;20099;-81
2022/05/31 08:59:40;;;;;;;0.00;0.00;;;17.80;93.00;;;;;;5033661;28;20128;-81
2022/05/31 09:02:21;;;;;;;0.98;0.17;;;17.80;84.50;;;;;;5037986;28;20131;-81
2022/05/31 09:05:13;;;;;;;0.00;0.00;;;18.00;92.30;;;;;;5021910;28;20076;-81
2022/05/31 09:07:54;;;;;;;0.00;0.00;;;17.90;81.10;;;;;;5054702;28;20448;-81
2022/05/31 09:10:28;;;;;;;0.00;0.00;;;18.00;87.70;;;;;;5038601;28;20538;-81
2022/05/31 09:13:16;;;;;;;0.00;0.00;;;18.10;86.20;;;;;;5020919;28;20524;-81
2022/05/31 09:15:54;;;;;;;0.00;0.00;;;18.10;82.40;;;;;;5038237;28;20041;-81
2022/05/31 09:18:31;;;;;;;0.08;0.08;;;18.30;82.60;;;;;;5038324;28;20064;-81
2022/05/31 09:21:01;;;;;;;0.00;0.00;;;18.50;85.90;;;;;;5037723;28;20053;-81
2022/05/31 09:23:31;;;;;;;0.00;0.00;;;18.70;83.00;;;;;;5021590;28;20098;-81
2022/05/31 09:26:34;;;;;;;1.08;0.30;;;18.70;69.60;;;;;;5050845;28;20057;-81
2022/05/31 09:29:17;;;;;;;0.00;0.00;;;18.70;72.50;;;;;;5038941;28;20045;-81
2022/05/31 09:32:02;;;;;;;0.00;0.00;;;18.70;74.80;;;;;;5055316;28;20481;-81
2022/05/31 09:34:33;;;;;;;0.00;0.00;;;18.60;74.20;;;;;;5038477;28;20510;-81
2022/05/31 09:37:08;;;;;;;0.00;0.00;;;18.50;71.80;;;;;;5055108;28;20052;-81
2022/05/31 09:39:43;;;;;;;0.00;0.00;;;18.50;73.10;;;;;;5055558;28;20045;-81
2022/05/31 09:42:23;;;;;;;0.10;0.10;;;18.50;76.60;;;;;;5055341;28;20040;-81
2022/05/31 09:45:08;;;;;;;0.00;0.00;;;18.50;69.70;;;;;;5055238;28;20045;-81
2022/05/31 09:47:34;;;;;;;0.00;0.00;;;18.40;69.70;;;;;;5038084;28;20045;-81
2022/05/31 09:50:00;;;;;;;0.03;0.00;;;18.40;72.70;;;;;;5054599;28;20056;-80
2022/05/31 09:52:31;;;;;;;0.00;0.00;;;18.60;68.00;;;;;;5055094;28;20041;-81
2022/05/31 09:57:57;;;;;;;0.00;0.00;;;18.90;67.90;;;;;;5054737;28;20099;-81
2022/05/31 10:00:23;;;;;;;0.00;0.00;;;19.00;69.30;;;;;;5054024;28;20131;-80
2022/05/31 10:03:05;;;;;;;0.00;0.00;;;19.00;67.50;;;;;;5052973;28;20049;-80
2022/05/31 10:05:32;;;;;;;0.03;0.00;;;18.90;67.00;;;;;;5038012;28;20068;-80
2022/05/31 10:07:57;;;;;;;0.00;0.00;;;18.90;70.00;;;;;;5054322;28;20041;-80
2022/05/31 10:10:31;;;;;;;0.00;0.00;;;18.90;64.40;;;;;;5054126;28;20055;-80
2022/05/31 10:13:00;;;;;;;0.00;0.00;;;18.90;71.00;;;;;;5054392;28;20401;-80
2022/05/31 10:15:44;;;;;;;0.20;0.20;;;19.00;67.10;;;;;;5054688;28;20048;-80
2022/05/31 10:18:25;;;;;;;0.00;0.00;;;19.00;66.00;;;;;;5054370;28;20044;-80
2022/05/31 10:21:02;;;;;;;0.00;0.00;;;19.20;71.00;;;;;;5054995;28;20072;-81
2022/05/31 10:23:45;;;;;;;0.00;0.00;;;19.20;65.10;;;;;;5047276;28;20404;-81
2022/05/31 10:26:32;;;;;;;0.00;0.00;;;19.50;69.80;;;;;;5051314;28;20057;-80
2022/05/31 10:29:03;;;;;;;0.25;0.08;;;19.70;67.80;;;;;;5073946;28;20048;-81
2022/05/31 10:31:41;;;;;;;1.85;0.45;;;19.50;61.00;;;;;;5074328;28;20041;-81
2022/05/31 10:34:40;;;;;;;0.03;0.00;;;19.40;67.60;;;;;;5074244;28;20048;-81
2022/05/31 10:37:26;;;;;;;0.00;0.00;;;19.20;65.30;;;;;;5073957;28;20098;-81
2022/05/31 10:40:05;;;;;;;0.00;0.00;;;19.00;59.40;;;;;;5074302;28;20036;-81
2022/05/31 10:42:35;;;;;;;0.17;0.17;;;18.90;60.50;;;;;;5074003;28;20122;-80
2022/05/31 10:45:04;;;;;;;0.00;0.00;;;18.80;61.40;;;;;;5057396;28;20052;-81
2022/05/31 10:47:29;;;;;;;0.00;0.00;;;18.70;62.70;;;;;;5073713;28;20048;-81
2022/05/31 10:49:57;;;;;;;0.00;0.00;;;18.50;59.20;;;;;;5067559;28;20051;-81
2022/05/31 10:52:46;;;;;;;0.00;0.00;;;18.50;57.90;;;;;;5040534;28;20083;-81
2022/05/31 10:55:31;;;;;;;0.00;0.00;;;18.30;60.30;;;;;;5036629;28;20511;-81
2022/05/31 10:58:11;;;;;;;0.15;0.15;;;18.20;58.90;;;;;;5053547;28;20095;-81
2022/05/31 11:00:40;;;;;;;0.00;0.00;;;18.20;62.70;;;;;;5052669;28;20057;-80
2022/05/31 11:03:06;;;;;;;3.25;0.47;;;18.20;61.70;;;;;;5037270;28;20049;-80
2022/05/31 11:05:40;;;;;;;0.00;0.00;;;18.30;64.10;;;;;;5037137;28;20063;-80
2022/05/31 11:11:52;;;;;;;0.10;0.00;;;18.20;63.00;;;;;;5053528;28;20504;-80
2022/05/31 11:14:56;;;;;;;0.10;0.10;;;18.20;60.00;;;;;;4996420;28;20054;-80
2022/05/31 11:17:46;;;;;;;0.00;0.00;;;18.20;60.40;;;;;;4922929;29;20067;-81
2022/05/31 11:20:52;;;;;;;0.00;0.00;;;18.30;62.50;;;;;;4938576;29;20483;-81
2022/05/31 11:23:33;;;;;;;0.00;0.00;;;18.30;61.80;;;;;;4923058;29;20202;-80
2022/05/31 11:26:12;;;;;;;0.00;0.00;;;18.30;61.90;;;;;;4938987;29;20050;-81
2022/05/31 11:28:37;;;;;;;0.00;0.00;;;18.30;64.20;;;;;;4922775;29;20067;-82
2022/05/31 11:31:22;;;;;;;0.10;0.10;;;18.10;63.00;;;;;;4937922;29;20182;-79
2022/05/31 11:34:00;;;;;;;3.92;0.50;;;18.10;62.30;;;;;;4938830;29;20081;-80
2022/05/31 11:37:04;;;;;;;0.98;0.57;;;18.00;65.70;;;;;;4938527;29;20066;-80
2022/05/31 11:40:07;;;;;;;0.00;0.00;;;18.10;64.50;;;;;;4922469;29;20054;-80
2022/05/31 11:43:09;;;;;;;0.00;0.00;;;18.00;63.90;;;;;;4938283;29;20094;-80
2022/05/31 11:45:56;;;;;;;0.10;0.00;;;18.00;64.60;;;;;;4922564;29;20157;-80
2022/05/31 11:48:55;;;;;;;0.00;0.00;;;18.10;66.20;;;;;;4957175;28;20061;-80
2022/05/31 11:51:46;;;;;;;0.30;0.30;;;18.10;66.10;;;;;;5053269;28;20049;-80
2022/05/31 11:54:37;;;;;;;0.00;0.00;;;18.10;66.30;;;;;;5053133;28;20041;-80
2022/05/31 11:57:29;;;;;;;1.00;0.30;;;18.30;66.20;;;;;;5053448;28;20170;-81
2022/05/31 12:00:11;;;;;;;0.55;0.28;;;18.30;66.60;;;;;;5036212;28;20469;-80
2022/05/31 12:02:47;;;;;;;0.00;0.00;;;18.30;65.70;;;;;;5036408;28;20045;-80
2022/05/31 12:05:43;;;;;;;0.10;0.00;;;18.30;65.40;;;;;;5053179;28;20042;-80
2022/05/31 12:08:14;;;;;;;0.00;0.00;;;18.30;66.10;;;;;;5036108;28;20049;-81
2022/05/31 12:10:44;;;;;;;0.28;0.20;;;18.40;66.70;;;;;;5052696;28;20057;-81
2022/05/31 12:13:12;;;;;;;0.00;0.00;;;18.50;67.20;;;;;;5052718;28;20171;-80
2022/05/31 12:15:44;;;;;;;0.20;0.00;;;18.60;67.80;;;;;;5052786;28;20084;-80
2022/05/31 12:18:25;;;;;;;0.00;0.00;;;18.70;68.70;;;;;;5052546;28;20397;-80
2022/05/31 12:21:31;;;;;;;0.00;0.00;;;18.90;71.80;;;;;;5052320;28;20081;-80
2022/05/31 12:24:13;;;;;;;0.00;0.00;;;19.20;70.90;;;;;;5012022;28;20057;-80
2022/05/31 12:27:15;;;;;;;0.00;0.00;;;19.30;69.60;;;;;;4998888;28;20045;-81
2022/05/31 12:30:02;;;;;;;0.00;0.00;;;19.30;68.80;;;;;;4999431;28;20138;-80
2022/05/31 12:32:38;;;;;;;0.00;0.00;;;19.60;67.80;;;;;;4999637;28;20445;-80
2022/05/31 12:35:07;;;;;;;1.08;0.28;;;19.60;66.20;;;;;;4998686;28;20156;-80
2022/05/31 12:37:53;;;;;;;0.00;0.00;;;19.40;62.90;;;;;;4983412;28;20057;-80
2022/05/31 12:40:33;;;;;;;0.00;0.00;;;19.00;64.80;;;;;;4999111;28;20105;-81
2022/05/31 12:43:22;;;;;;;0.30;0.30;;;18.80;63.40;;;;;;4999320;28;20056;-80
2022/05/31 12:45:49;;;;;;;0.10;0.10;;;18.60;64.00;;;;;;4943216;28;20169;-81
2022/05/31 12:48:15;;;;;;;0.00;0.00;;;18.50;66.30;;;;;;4943767;28;20054;-82
2022/05/31 12:50:46;;;;;;;0.38;0.10;;;18.50;65.60;;;;;;4959437;28;20051;-81
2022/05/31 12:53:22;;;;;;;0.00;0.00;;;18.50;65.00;;;;;;4943625;28;20121;-81
2022/05/31 12:55:47;;;;;;;0.00;0.00;;;18.90;67.10;;;;;;4959809;28;20050;-80
2022/05/31 12:58:33;;;;;;;0.10;0.00;;;19.40;62.60;;;;;;4960164;28;20077;-80
2022/05/31 13:01:11;;;;;;;0.00;0.00;;;19.80;59.50;;;;;;4967119;28;20058;-80
2022/05/31 13:03:42;;;;;;;0.25;0.05;;;20.30;60.60;;;;;;4982545;28;20057;-80
2022/05/31 13:06:10;;;;;;;0.00;0.00;;;20.50;58.60;;;;;;4982813;28;20077;-79
2022/05/31 13:08:48;;;;;;;0.00;0.00;;;20.60;58.50;;;;;;4998747;28;20046;-80
2022/05/31 13:20:04;;;;;;;0.00;0.00;;;19.80;55.90;;;;;;5004434;28;20049;-80
2022/05/31 13:22:37;;;;;;;0.30;0.10;;;19.70;60.50;;;;;;5029923;28;20076;-80
2022/05/31 13:25:22;;;;;;;0.00;0.00;;;19.70;57.10;;;;;;5055254;28;20053;-80
2022/05/31 13:27:53;;;;;;;0.00;0.00;;;19.80;60.50;;;;;;5038499;28;20489;-80
2022/05/31 13:30:22;;;;;;;0.88;0.10;;;19.80;60.50;;;;;;5038625;28;20057;-80
2022/05/31 13:32:48;;;;;;;0.00;0.00;;;19.70;57.30;;;;;;5055280;28;20103;-80
2022/05/31 13:35:26;;;;;;;0.00;0.00;;;19.50;56.80;;;;;;5072463;28;20045;-80
2022/05/31 13:38:00;;;;;;;0.00;0.00;;;19.30;56.80;;;;;;5038113;28;20136;-80
2022/05/31 13:40:40;;;;;;;1.25;0.30;;;19.20;58.90;;;;;;5055008;28;20044;-80
2022/05/31 13:43:22;;;;;;;0.00;0.00;;;19.10;58.80;;;;;;5055285;28;20049;-80
2022/05/31 13:45:53;;;;;;;0.00;0.00;;;19.10;59.90;;;;;;5038465;28;20041;-80